Time;durP1;ratioP1;P1;durP2;ratioP2;P2;SDS_P1;SDS_P2;PMS_P1;PMS_P2;Temp;Humidity;BMP_temperature;BMP_pressure;BME280_temperature;BME280_humidity;BME280_pressure;Samples;Min_cycle;Max_cycle;Signal;HPM_P1;HPM_P2
2022/08/25 00:00:04;;;;;;;38.28;18.15;;;24.10;99.90;;;;;;6117249;23;20010;-91
2022/08/25 00:02:31;;;;;;;31.38;18.08;;;24.10;99.90;;;;;;6102930;23;20014;-94
2022/08/25 00:04:57;;;;;;;31.08;18.25;;;24.10;99.90;;;;;;6100339;23;20530;-92
2022/08/25 00:07:24;;;;;;;29.80;17.50;;;24.10;99.90;;;;;;6075574;23;20010;-92
2022/08/25 00:09:51;;;;;;;31.52;18.15;;;24.10;99.90;;;;;;6073538;23;20101;-91
2022/08/25 00:12:18;;;;;;;31.15;17.00;;;24.10;99.90;;;;;;6126775;23;20018;-92
2022/08/25 00:15:14;;;;;;;30.20;16.02;;;24.10;99.90;;;;;;6127325;23;20006;-91
2022/08/25 00:17:41;;;;;;;29.45;16.80;;;24.10;99.90;;;;;;6102328;23;20121;-91
2022/08/25 00:20:08;;;;;;;27.17;16.98;;;24.10;99.90;;;;;;6126887;23;20070;-92
2022/08/25 00:22:38;;;;;;;30.05;16.65;;;24.10;99.90;;;;;;6102364;23;20010;-92
2022/08/25 00:25:06;;;;;;;28.38;16.63;;;24.10;99.90;;;;;;6101575;23;20014;-92
2022/08/25 00:27:33;;;;;;;26.05;14.57;;;24.10;99.90;;;;;;6102511;23;20006;-92
2022/08/25 00:29:59;;;;;;;27.85;16.80;;;24.10;99.90;;;;;;6129628;23;20006;-93
2022/08/25 00:32:26;;;;;;;35.33;15.55;;;24.10;99.90;;;;;;6132441;23;20005;-92
2022/08/25 00:34:53;;;;;;;29.27;14.55;;;24.00;99.90;;;;;;6156774;23;20032;-92
2022/08/25 00:37:20;;;;;;;25.38;13.32;;;24.00;99.90;;;;;;6132556;23;20005;-91
2022/08/25 00:39:46;;;;;;;28.33;14.43;;;24.00;99.90;;;;;;6132147;23;20087;-92
2022/08/25 00:42:14;;;;;;;24.63;12.88;;;24.00;99.90;;;;;;6132212;23;20056;-92
2022/08/25 00:44:42;;;;;;;23.77;13.05;;;24.00;99.90;;;;;;6156783;23;20006;-92
2022/08/25 00:47:09;;;;;;;23.17;12.40;;;24.00;99.90;;;;;;6132149;23;20432;-91
2022/08/25 00:49:50;;;;;;;30.58;13.07;;;24.00;99.90;;;;;;6108293;23;20432;-91
2022/08/25 00:52:24;;;;;;;22.17;11.70;;;24.00;99.90;;;;;;6157102;23;20010;-91
2022/08/25 00:55:20;;;;;;;26.08;13.40;;;24.00;99.90;;;;;;6156449;23;20022;-92
2022/08/25 00:58:19;;;;;;;24.10;12.35;;;24.00;99.90;;;;;;6132754;23;20016;-90
2022/08/25 01:00:51;;;;;;;23.92;13.27;;;23.90;99.90;;;;;;6157468;23;20443;-94
2022/08/25 01:03:19;;;;;;;22.88;12.82;;;23.90;99.90;;;;;;6156735;23;20012;-92
2022/08/25 01:05:50;;;;;;;25.38;11.70;;;23.90;99.90;;;;;;6156858;23;20060;-91
2022/08/25 01:08:26;;;;;;;26.20;12.20;;;23.90;99.90;;;;;;6132261;23;20088;-93
2022/08/25 01:10:56;;;;;;;29.98;14.00;;;23.90;99.90;;;;;;6132445;23;20084;-92
2022/08/25 01:13:46;;;;;;;21.25;10.70;;;23.90;99.90;;;;;;6132021;23;20044;-91
2022/08/25 01:16:14;;;;;;;24.27;11.57;;;23.90;99.90;;;;;;6156303;23;20348;-91
2022/08/25 01:18:55;;;;;;;22.35;12.05;;;23.90;99.90;;;;;;6156285;23;20009;-92
2022/08/25 01:21:25;;;;;;;25.05;12.20;;;23.90;99.90;;;;;;6156146;23;20020;-90
2022/08/25 01:23:52;;;;;;;22.73;12.00;;;23.90;99.90;;;;;;6131738;23;20021;-91
2022/08/25 01:26:29;;;;;;;23.95;11.40;;;23.90;99.90;;;;;;6156422;23;20363;-90
2022/08/25 01:31:41;;;;;;;19.30;11.13;;;23.90;99.90;;;;;;6156268;23;20317;-93
2022/08/25 01:34:11;;;;;;;20.90;11.68;;;23.90;99.90;;;;;;6156258;23;20351;-93
2022/08/25 01:36:40;;;;;;;21.27;11.68;;;23.90;99.90;;;;;;6131853;23;20022;-91
2022/08/25 01:39:11;;;;;;;23.55;11.10;;;24.00;99.90;;;;;;6156178;23;20010;-92
2022/08/25 01:42:10;;;;;;;25.15;12.23;;;23.90;99.90;;;;;;6131817;23;20084;-91
2022/08/25 01:44:47;;;;;;;25.92;12.85;;;23.90;99.90;;;;;;6068074;23;20014;-91
2022/08/25 01:47:15;;;;;;;21.30;11.57;;;23.90;99.90;;;;;;6068245;23;20027;-91
2022/08/25 01:49:42;;;;;;;21.73;11.50;;;23.90;99.90;;;;;;6068051;23;20124;-92
2022/08/25 01:52:36;;;;;;;26.60;10.80;;;23.90;99.90;;;;;;6067665;23;20105;-91
2022/08/25 01:55:04;;;;;;;24.90;9.93;;;23.90;99.90;;;;;;6067495;23;20022;-91
2022/08/25 01:57:31;;;;;;;24.20;12.18;;;23.90;99.90;;;;;;6067912;23;20188;-93
2022/08/25 01:59:59;;;;;;;24.60;11.05;;;24.00;99.90;;;;;;6068041;23;20011;-91
2022/08/25 02:02:26;;;;;;;22.88;10.77;;;23.90;99.90;;;;;;6067803;23;20033;-91
2022/08/25 02:04:53;;;;;;;22.58;10.40;;;24.00;99.90;;;;;;6068581;23;20015;-93
2022/08/25 02:07:20;;;;;;;19.98;9.82;;;24.00;99.90;;;;;;6068156;23;20003;-91
2022/08/25 02:09:47;;;;;;;16.40;9.45;;;24.00;99.90;;;;;;6068211;23;20071;-92
2022/08/25 02:12:14;;;;;;;24.73;9.70;;;24.00;99.90;;;;;;6068067;23;20033;-91
2022/08/25 02:14:41;;;;;;;21.83;9.57;;;24.00;99.90;;;;;;6076309;23;20014;-91
2022/08/25 02:17:08;;;;;;;20.52;9.30;;;24.00;99.90;;;;;;6084959;23;20039;-91
2022/08/25 02:19:35;;;;;;;23.45;10.52;;;24.00;99.90;;;;;;6088983;23;20007;-92
2022/08/25 02:22:02;;;;;;;20.33;9.18;;;24.00;99.90;;;;;;6116371;23;20013;-91
2022/08/25 02:24:32;;;;;;;19.17;9.35;;;24.00;99.90;;;;;;6131852;23;20085;-90
2022/08/25 02:27:02;;;;;;;19.80;7.65;;;24.00;99.90;;;;;;6131396;23;20014;-92
2022/08/25 02:29:29;;;;;;;20.05;8.35;;;24.00;99.90;;;;;;6131469;23;20005;-93
2022/08/25 02:31:56;;;;;;;18.52;8.68;;;24.00;99.90;;;;;;6131135;23;20025;-92
2022/08/25 02:34:22;;;;;;;21.42;8.23;;;24.00;99.90;;;;;;6135741;23;20094;-92
2022/08/25 02:36:49;;;;;;;18.75;8.18;;;24.10;99.90;;;;;;6132106;23;20005;-91
2022/08/25 02:39:19;;;;;;;19.83;8.07;;;24.00;99.90;;;;;;6106967;23;20020;-90
2022/08/25 02:41:49;;;;;;;21.50;8.50;;;24.00;99.90;;;;;;6131359;23;20009;-92
2022/08/25 02:44:22;;;;;;;18.73;7.20;;;24.10;99.90;;;;;;6132442;23;20490;-93
2022/08/25 02:46:48;;;;;;;23.33;7.75;;;24.10;99.90;;;;;;6131476;23;20088;-92
2022/08/25 02:49:15;;;;;;;17.65;6.90;;;24.00;99.90;;;;;;6131183;23;20006;-92
2022/08/25 02:51:42;;;;;;;19.95;6.82;;;24.10;99.90;;;;;;6131337;23;20017;-93
2022/08/25 02:54:08;;;;;;;22.05;7.57;;;24.10;99.90;;;;;;6131309;23;20014;-91
2022/08/25 02:56:35;;;;;;;25.48;8.55;;;24.10;99.90;;;;;;6130914;23;20064;-91
2022/08/25 02:59:02;;;;;;;15.93;6.55;;;24.10;99.90;;;;;;6131159;23;20072;-92
2022/08/25 03:01:31;;;;;;;26.80;7.20;;;24.10;99.90;;;;;;6131485;23;20313;-94
2022/08/25 03:04:02;;;;;;;18.38;7.65;;;24.10;99.90;;;;;;6131221;23;20009;-92
2022/08/25 03:06:30;;;;;;;16.63;7.07;;;24.10;99.90;;;;;;6131246;23;20009;-92
2022/08/25 03:08:56;;;;;;;19.23;7.03;;;24.20;99.90;;;;;;6131372;23;20006;-94
2022/08/25 03:11:25;;;;;;;19.63;5.97;;;24.10;99.90;;;;;;6131314;23;20017;-93
2022/08/25 03:13:52;;;;;;;21.05;6.43;;;24.10;99.90;;;;;;6135313;23;20010;-92
2022/08/25 03:16:19;;;;;;;19.95;5.88;;;24.20;99.90;;;;;;6131595;23;20148;-92
2022/08/25 03:18:49;;;;;;;20.05;5.88;;;24.20;99.90;;;;;;6131494;23;20432;-92
2022/08/25 03:21:16;;;;;;;17.80;6.25;;;24.20;99.90;;;;;;6131410;23;20025;-93
2022/08/25 03:23:44;;;;;;;13.82;5.80;;;24.20;99.90;;;;;;6130897;23;20019;-92
2022/08/25 03:28:57;;;;;;;17.33;5.10;;;24.20;99.90;;;;;;6131039;23;20502;-92
2022/08/25 03:31:27;;;;;;;23.98;6.68;;;24.20;99.90;;;;;;6131195;23;20006;-92
2022/08/25 03:33:55;;;;;;;20.08;5.80;;;24.20;99.90;;;;;;6130443;23;20022;-92
2022/08/25 03:36:21;;;;;;;15.98;6.30;;;24.20;99.90;;;;;;6131054;23;20010;-93
2022/08/25 03:38:48;;;;;;;17.20;6.32;;;24.20;99.90;;;;;;6130978;23;20009;-92
2022/08/25 03:41:28;;;;;;;15.55;5.07;;;24.20;99.90;;;;;;6131371;23;20696;-92
2022/08/25 03:43:55;;;;;;;22.40;6.88;;;24.20;99.90;;;;;;6130853;23;20010;-93
2022/08/25 03:46:28;;;;;;;18.88;5.32;;;24.20;99.90;;;;;;6131023;23;20313;-92
2022/08/25 03:48:56;;;;;;;23.73;6.00;;;24.20;99.90;;;;;;6131156;23;20101;-94
2022/08/25 03:51:30;;;;;;;21.20;5.38;;;24.20;99.90;;;;;;6131186;23;19997;-94
2022/08/25 03:53:57;;;;;;;20.48;6.00;;;24.20;99.90;;;;;;6131271;23;20021;-91
2022/08/25 03:56:26;;;;;;;24.45;6.35;;;24.10;99.90;;;;;;6131400;23;20024;-92
2022/08/25 03:58:54;;;;;;;27.33;6.88;;;24.10;99.90;;;;;;6131176;23;20013;-92
2022/08/25 04:01:22;;;;;;;16.63;6.18;;;24.10;99.90;;;;;;6132667;23;20014;-92
2022/08/25 04:03:52;;;;;;;19.30;5.50;;;24.10;99.90;;;;;;6108576;23;20021;-92
2022/08/25 04:06:22;;;;;;;20.23;5.93;;;24.10;99.90;;;;;;6133228;23;20013;-93
2022/08/25 04:08:51;;;;;;;18.88;6.00;;;24.10;99.90;;;;;;6132866;23;20037;-92
2022/08/25 04:11:22;;;;;;;23.60;6.22;;;24.10;99.90;;;;;;6132853;23;20013;-92
2022/08/25 04:13:50;;;;;;;20.75;7.28;;;24.10;99.90;;;;;;6132848;23;20033;-91
2022/08/25 04:16:21;;;;;;;17.98;5.85;;;24.10;99.90;;;;;;6109501;23;20428;-92
2022/08/25 04:18:49;;;;;;;15.70;5.47;;;24.10;99.90;;;;;;6112801;23;20021;-93
2022/08/25 04:21:20;;;;;;;14.68;5.53;;;24.10;99.90;;;;;;6133678;23;20009;-91
2022/08/25 04:23:48;;;;;;;16.63;6.00;;;24.10;99.90;;;;;;6132826;23;20051;-93
2022/08/25 04:26:31;;;;;;;18.17;6.53;;;24.10;99.90;;;;;;6136676;23;20001;-93
2022/08/25 04:28:59;;;;;;;18.55;6.05;;;24.10;99.90;;;;;;6145889;23;20010;-91
2022/08/25 04:31:30;;;;;;;24.33;6.85;;;24.10;99.90;;;;;;6153182;23;20025;-91
2022/08/25 04:34:00;;;;;;;19.00;6.93;;;24.10;99.90;;;;;;6139434;23;20021;-91
2022/08/25 04:36:28;;;;;;;23.92;6.75;;;24.20;99.90;;;;;;6132963;23;20016;-91
2022/08/25 04:38:55;;;;;;;21.80;5.78;;;24.20;99.90;;;;;;6132336;23;20021;-93
2022/08/25 04:41:26;;;;;;;19.92;6.80;;;24.20;99.90;;;;;;6132486;23;20068;-91
2022/08/25 04:43:57;;;;;;;25.13;7.00;;;24.20;99.90;;;;;;6132486;23;20014;-92
2022/08/25 04:46:28;;;;;;;23.52;5.75;;;24.20;99.90;;;;;;6132445;23;20036;-93
2022/08/25 04:48:58;;;;;;;18.33;6.47;;;24.20;99.90;;;;;;6132158;23;20010;-93
2022/08/25 04:51:29;;;;;;;21.80;6.88;;;24.30;99.90;;;;;;6132494;23;20041;-92
2022/08/25 04:54:04;;;;;;;23.73;7.57;;;24.30;99.90;;;;;;6132981;23;20415;-91
2022/08/25 04:56:34;;;;;;;18.98;6.57;;;24.30;99.90;;;;;;6132550;23;20025;-92
2022/08/25 04:59:08;;;;;;;22.83;6.82;;;24.30;99.90;;;;;;6131959;23;20252;-92
2022/08/25 05:01:36;;;;;;;21.25;8.25;;;24.40;99.90;;;;;;6132226;23;20029;-92
2022/08/25 05:04:08;;;;;;;27.15;8.20;;;24.40;99.90;;;;;;6131991;23;20309;-92
2022/08/25 05:06:36;;;;;;;18.73;7.57;;;24.40;99.90;;;;;;6132334;23;20014;-93
2022/08/25 05:09:04;;;;;;;22.77;8.10;;;24.50;99.90;;;;;;6132063;23;20001;-93
2022/08/25 05:11:31;;;;;;;19.92;7.50;;;24.50;99.90;;;;;;6132039;23;20100;-93
2022/08/25 05:14:00;;;;;;;22.38;9.15;;;24.50;99.90;;;;;;6131945;23;20436;-92
2022/08/25 05:16:30;;;;;;;18.73;8.77;;;24.60;99.90;;;;;;6133128;23;20010;-94
2022/08/25 05:18:57;;;;;;;29.60;10.05;;;24.60;99.90;;;;;;6132107;23;20136;-92
2022/08/25 05:21:27;;;;;;;24.60;9.88;;;24.60;99.90;;;;;;6156102;23;20435;-92
2022/08/25 05:23:56;;;;;;;23.48;8.27;;;24.70;99.90;;;;;;6132446;23;20013;-92
2022/08/25 05:26:31;;;;;;;20.33;7.85;;;24.70;99.90;;;;;;6131924;23;20036;-94
2022/08/25 05:29:03;;;;;;;18.20;8.18;;;24.70;99.90;;;;;;6132069;23;20009;-93
2022/08/25 05:31:34;;;;;;;17.85;6.97;;;24.70;99.90;;;;;;6131939;23;20005;-92
2022/08/25 05:34:06;;;;;;;27.67;9.55;;;24.70;99.90;;;;;;6131556;23;20032;-91
2022/08/25 05:36:42;;;;;;;16.13;7.18;;;24.70;99.90;;;;;;6131739;23;20428;-94
2022/08/25 05:39:09;;;;;;;21.98;7.70;;;24.70;99.90;;;;;;6131931;23;20037;-92
2022/08/25 05:41:36;;;;;;;19.05;6.97;;;24.70;99.90;;;;;;6107443;23;20017;-92
2022/08/25 05:44:03;;;;;;;30.65;8.60;;;24.70;99.90;;;;;;6131656;23;20009;-92
2022/08/25 05:46:29;;;;;;;30.63;9.80;;;24.60;99.90;;;;;;6131875;23;20014;-93
2022/08/25 05:48:56;;;;;;;27.52;8.40;;;24.60;99.90;;;;;;6131810;23;20387;-93
2022/08/25 05:51:23;;;;;;;23.05;8.27;;;24.70;99.90;;;;;;6131590;23;20092;-93
2022/08/25 05:53:51;;;;;;;26.27;8.10;;;24.70;99.90;;;;;;6131887;23;20013;-91
2022/08/25 05:56:18;;;;;;;22.02;7.80;;;24.70;99.90;;;;;;6131443;23;20017;-92
2022/08/25 05:58:46;;;;;;;16.63;7.97;;;24.70;99.90;;;;;;6110182;23;20006;-92
2022/08/25 06:04:10;;;;;;;22.42;8.07;;;24.90;99.90;;;;;;6131586;23;20347;-92
2022/08/25 06:06:38;;;;;;;16.95;7.45;;;25.00;99.90;;;;;;6131789;23;20487;-93
2022/08/25 06:09:07;;;;;;;24.15;8.07;;;25.00;99.90;;;;;;6131766;23;20005;-92
2022/08/25 06:11:36;;;;;;;23.85;10.07;;;25.10;99.90;;;;;;6107231;23;20021;-92
2022/08/25 06:14:03;;;;;;;19.42;8.25;;;25.10;99.90;;;;;;6131443;23;20443;-94
2022/08/25 06:16:37;;;;;;;18.70;8.38;;;25.10;99.90;;;;;;6131323;23;20009;-92
2022/08/25 06:19:05;;;;;;;16.55;7.97;;;25.30;99.90;;;;;;6132277;23;20009;-92
2022/08/25 06:21:32;;;;;;;17.65;8.02;;;25.40;99.90;;;;;;6131965;23;20009;-92
2022/08/25 06:23:58;;;;;;;24.95;9.60;;;25.60;99.90;;;;;;6131457;23;20114;-93
2022/08/25 06:26:32;;;;;;;21.00;10.00;;;25.80;99.90;;;;;;6131854;23;20092;-93
2022/08/25 06:28:59;;;;;;;23.73;9.25;;;25.80;99.90;;;;;;6156121;23;20016;-92
2022/08/25 06:35:09;;;;;;;18.10;8.90;;;25.60;99.90;;;;;;6146140;23;20034;-94
2022/08/25 06:51:23;;;;;;;21.17;10.30;;;25.70;99.90;;;;;;6190245;23;20136;-93
2022/08/25 07:13:55;;;;;;;;;;;;;;;;;;;;;
2022/08/25 07:16:34;;;;;;;23.23;11.48;;;26.70;99.90;;;;;;5962165;23;20007;-93
2022/08/25 07:19:01;;;;;;;18.10;11.25;;;26.70;99.90;;;;;;6049901;23;20018;-92
2022/08/25 07:21:34;;;;;;;24.80;14.02;;;26.50;99.90;;;;;;6076057;23;20003;-91
2022/08/25 07:24:46;;;;;;;;;;;;;;;;;;;;;
2022/08/25 10:09:56;;;;;;;25.88;16.50;;;28.60;99.90;;;;;;6164912;23;20108;-94
2022/08/25 11:06:32;;;;;;;17.58;14.65;;;28.80;99.90;;;;;;6167633;23;20684;-94
2022/08/25 11:09:38;;;;;;;22.33;16.90;;;28.80;99.90;;;;;;6114453;23;20025;-93
2022/08/25 11:12:18;;;;;;;22.42;16.30;;;28.80;99.90;;;;;;6121223;23;20064;-93
2022/08/25 11:14:55;;;;;;;20.30;15.98;;;28.90;99.90;;;;;;6120664;23;20018;-94
2022/08/25 11:17:46;;;;;;;22.27;15.82;;;28.90;99.90;;;;;;6111750;23;20029;-94
2022/08/25 11:20:32;;;;;;;23.35;17.08;;;28.80;99.90;;;;;;6119001;23;20041;-93
2022/08/25 11:23:22;;;;;;;21.40;18.73;;;29.00;99.90;;;;;;6087284;23;20013;-93
2022/08/25 11:26:01;;;;;;;27.10;23.15;;;28.90;99.90;;;;;;6113068;23;20006;-94
2022/08/25 11:28:56;;;;;;;20.70;18.65;;;28.80;99.90;;;;;;6118666;23;20010;-91
2022/08/25 11:31:26;;;;;;;19.30;17.58;;;28.90;99.90;;;;;;6118957;23;20010;-94
2022/08/25 11:33:54;;;;;;;21.42;18.75;;;29.10;99.90;;;;;;6110208;23;20123;-91
2022/08/25 11:36:34;;;;;;;19.35;17.40;;;29.10;99.90;;;;;;6109176;23;20005;-93
2022/08/25 11:39:50;;;;;;;17.73;16.10;;;29.10;99.90;;;;;;6109572;23;20025;-93
2022/08/25 11:42:52;;;;;;;19.58;17.88;;;29.20;99.90;;;;;;6081846;23;20016;-91
2022/08/25 11:45:43;;;;;;;19.33;17.35;;;29.20;99.90;;;;;;6113602;23;20035;-92
2022/08/25 11:48:47;;;;;;;18.83;17.05;;;29.30;99.90;;;;;;6139230;23;20012;-94
2022/08/25 11:51:41;;;;;;;;;;;29.00;99.90;;;;;;6141308;23;20510;-94
2022/08/25 11:54:33;;;;;;;18.75;16.63;;;28.90;99.90;;;;;;6133672;23;19912;-92
2022/08/25 11:57:18;;;;;;;17.02;15.63;;;29.00;99.90;;;;;;6140252;23;20044;-92
2022/08/25 11:59:59;;;;;;;15.65;14.45;;;29.20;99.90;;;;;;6141504;23;20009;-93
2022/08/25 12:04:54;;;;;;;15.95;14.65;;;29.00;99.90;;;;;;6164083;23;20116;-92
2022/08/25 12:11:06;;;;;;;16.33;15.02;;;29.10;99.90;;;;;;6116633;23;20014;-93
2022/08/25 12:13:43;;;;;;;15.25;14.07;;;29.30;99.90;;;;;;6068505;23;20018;-93
2022/08/25 12:17:01;;;;;;;16.10;14.90;;;29.30;99.90;;;;;;6092459;23;20010;-92
2022/08/25 12:19:39;;;;;;;17.08;15.95;;;29.20;99.90;;;;;;6060773;23;20016;-92
2022/08/25 12:22:32;;;;;;;18.00;16.50;;;29.40;99.90;;;;;;6084778;23;20010;-93
2022/08/25 12:25:20;;;;;;;22.67;20.10;;;29.70;99.90;;;;;;6042436;23;20453;-93
2022/08/25 12:28:28;;;;;;;21.48;18.95;;;29.40;99.90;;;;;;6079351;23;20018;-92
2022/08/25 12:31:02;;;;;;;20.65;18.45;;;29.20;99.90;;;;;;6032213;23;20018;-94
2022/08/25 12:33:45;;;;;;;22.65;20.35;;;29.10;99.90;;;;;;6084447;23;20014;-95
2022/08/25 12:36:33;;;;;;;22.67;20.42;;;29.00;99.90;;;;;;6086504;23;20093;-93
2022/08/25 12:39:50;;;;;;;26.40;21.48;;;29.10;99.90;;;;;;5975984;23;20035;-94
2022/08/25 12:42:38;;;;;;;20.75;18.75;;;29.10;99.90;;;;;;5945721;24;20008;-93
2022/08/25 12:45:37;;;;;;;28.60;21.58;;;29.30;99.90;;;;;;5970751;24;20017;-94
2022/08/25 12:48:30;;;;;;;23.40;20.92;;;29.70;99.90;;;;;;5976915;23;20052;-95
2022/08/25 12:51:43;;;;;;;22.33;19.58;;;30.00;99.90;;;;;;6005660;23;20067;-94
2022/08/25 12:54:36;;;;;;;24.20;20.95;;;29.60;99.90;;;;;;5893808;24;20018;-94
2022/08/25 12:57:21;;;;;;;29.02;21.20;;;29.40;99.90;;;;;;5859613;24;20016;-94
2022/08/25 12:59:55;;;;;;;25.20;20.73;;;29.20;99.90;;;;;;5903264;24;20014;-94
2022/08/25 13:02:43;;;;;;;23.42;19.75;;;29.20;99.90;;;;;;5855656;24;20013;-94
2022/08/25 13:05:28;;;;;;;23.67;18.50;;;29.10;99.90;;;;;;5901160;24;20025;-93
2022/08/25 13:08:19;;;;;;;21.08;18.00;;;29.00;99.90;;;;;;5877879;24;20017;-93
2022/08/25 13:10:57;;;;;;;22.25;17.23;;;29.20;99.90;;;;;;5973006;23;20016;-94
2022/08/25 13:13:59;;;;;;;20.52;17.50;;;29.10;99.90;;;;;;6013326;23;20014;-93
2022/08/25 13:16:28;;;;;;;20.90;17.25;;;29.00;99.90;;;;;;6044250;23;20018;-94
2022/08/25 13:18:57;;;;;;;19.13;17.13;;;29.00;99.90;;;;;;6021395;23;20011;-93
2022/08/25 13:21:29;;;;;;;21.27;18.95;;;29.10;99.90;;;;;;6023345;23;20362;-94
2022/08/25 13:23:59;;;;;;;23.65;19.50;;;29.10;99.90;;;;;;6062151;23;20001;-93
2022/08/25 13:26:32;;;;;;;21.42;17.50;;;28.90;99.90;;;;;;6139612;23;20013;-94
2022/08/25 13:29:18;;;;;;;30.40;18.00;;;28.80;99.90;;;;;;6142337;23;20040;-94
2022/08/25 13:31:56;;;;;;;22.70;17.75;;;29.10;99.90;;;;;;6138855;23;20016;-94
2022/08/25 13:34:26;;;;;;;19.80;17.77;;;28.90;99.90;;;;;;6136793;23;20029;-92
2022/08/25 13:39:38;;;;;;;20.73;18.45;;;28.60;99.90;;;;;;6161242;23;20017;-93
2022/08/25 13:42:12;;;;;;;19.13;17.08;;;28.50;99.90;;;;;;6139036;23;20020;-92
2022/08/25 13:44:40;;;;;;;20.90;18.10;;;28.60;99.90;;;;;;6136505;23;20032;-93
2022/08/25 13:47:14;;;;;;;20.67;18.45;;;28.50;99.90;;;;;;6136618;23;20005;-92
2022/08/25 13:49:44;;;;;;;21.20;18.35;;;28.60;99.90;;;;;;6136609;23;20016;-93
2022/08/25 13:52:29;;;;;;;22.70;18.08;;;28.50;99.90;;;;;;6136803;23;20013;-93
2022/08/25 13:55:00;;;;;;;20.73;18.05;;;28.60;99.90;;;;;;6136946;23;20051;-93
2022/08/25 13:57:29;;;;;;;22.63;17.77;;;28.40;99.90;;;;;;6136730;23;20016;-92
2022/08/25 14:00:01;;;;;;;17.27;15.75;;;28.40;99.90;;;;;;6136899;23;20005;-93
2022/08/25 14:02:48;;;;;;;20.33;16.42;;;28.30;99.90;;;;;;6136196;23;20008;-91
2022/08/25 14:05:38;;;;;;;19.02;16.95;;;28.60;99.90;;;;;;6139273;23;20005;-94
2022/08/25 14:08:25;;;;;;;19.50;17.05;;;28.60;99.90;;;;;;6148403;23;20094;-93
2022/08/25 14:11:08;;;;;;;20.15;17.08;;;28.50;99.90;;;;;;6170550;23;20009;-93
2022/08/25 14:13:44;;;;;;;19.05;16.90;;;28.70;99.90;;;;;;6156475;23;20016;-93
2022/08/25 14:16:49;;;;;;;19.08;17.15;;;28.60;99.90;;;;;;6156439;23;20064;-93
2022/08/25 14:19:20;;;;;;;18.85;16.85;;;28.60;99.90;;;;;;6000497;23;20331;-93
2022/08/25 14:21:47;;;;;;;20.23;17.77;;;28.70;99.90;;;;;;5996791;23;20071;-94
2022/08/25 14:24:19;;;;;;;18.10;16.35;;;28.70;99.90;;;;;;5992690;23;20011;-93
2022/08/25 14:26:46;;;;;;;20.33;16.70;;;28.80;99.90;;;;;;5993005;23;20417;-93
2022/08/25 14:29:14;;;;;;;18.88;17.08;;;28.70;99.90;;;;;;6019005;23;20016;-94
2022/08/25 14:31:44;;;;;;;20.17;17.83;;;28.60;99.90;;;;;;5975870;23;20004;-93
2022/08/25 14:34:16;;;;;;;18.73;16.88;;;28.70;99.90;;;;;;5968050;24;20012;-94
2022/08/25 14:36:44;;;;;;;19.05;17.15;;;28.80;99.90;;;;;;5943626;24;20004;-93
2022/08/25 14:39:13;;;;;;;19.83;16.10;;;28.90;99.90;;;;;;5965648;24;20008;-94
2022/08/25 14:41:45;;;;;;;21.55;18.42;;;28.80;99.90;;;;;;5959096;24;20016;-95
2022/08/25 14:44:14;;;;;;;25.15;17.40;;;28.90;99.90;;;;;;5966438;24;20155;-95
2022/08/25 14:46:54;;;;;;;20.70;17.27;;;28.80;99.90;;;;;;5951029;24;20025;-95
2022/08/25 14:49:35;;;;;;;19.42;17.38;;;29.00;99.90;;;;;;5995844;23;20016;-94
2022/08/25 14:52:24;;;;;;;21.77;18.27;;;29.10;99.90;;;;;;5975883;24;20087;-94
2022/08/25 14:54:50;;;;;;;21.70;17.77;;;29.00;99.90;;;;;;5977620;23;20053;-93
2022/08/25 14:57:19;;;;;;;21.70;18.02;;;28.80;99.90;;;;;;6059578;23;20004;-92
2022/08/25 14:59:46;;;;;;;20.70;17.60;;;28.70;99.90;;;;;;6037417;23;20039;-94
2022/08/25 15:02:18;;;;;;;24.88;18.40;;;28.70;99.90;;;;;;6085504;23;19999;-93
2022/08/25 15:05:04;;;;;;;20.42;18.15;;;28.70;99.90;;;;;;6001758;23;20417;-93
2022/08/25 15:13:09;;;;;;;20.75;18.63;;;28.70;99.90;;;;;;6003800;23;20043;-95
2022/08/25 15:21:34;;;;;;;20.73;18.45;;;28.70;99.90;;;;;;6205951;23;20032;-94
2022/08/25 15:24:06;;;;;;;21.90;19.80;;;28.50;99.90;;;;;;6128285;23;20009;-93
2022/08/25 15:26:45;;;;;;;23.23;18.75;;;28.60;99.90;;;;;;6152165;23;20016;-94
2022/08/25 15:29:25;;;;;;;;;;;;;;;;;;;;;
2022/08/25 15:34:59;;;;;;;;;;;28.80;99.90;;;;;;6130413;23;20005;-93
2022/08/25 15:37:32;;;;;;;25.23;18.65;;;28.80;99.90;;;;;;6100784;23;19911;-94
2022/08/25 15:40:30;;;;;;;20.15;17.90;;;28.90;99.90;;;;;;6066540;23;20158;-95
2022/08/25 15:46:15;;;;;;;22.23;18.45;;;28.90;99.90;;;;;;6057655;23;20042;-94
2022/08/25 15:48:47;;;;;;;26.88;19.33;;;28.90;99.90;;;;;;6034367;23;20011;-94
2022/08/25 16:02:53;;;;;;;23.67;17.60;;;29.10;99.90;;;;;;6188584;23;20037;-93
2022/08/25 16:37:04;;;;;;;23.00;19.10;;;28.00;99.90;;;;;;6137838;23;20025;-78
2022/08/25 16:39:44;;;;;;;21.48;19.00;;;28.00;99.90;;;;;;6108380;23;20053;-91
2022/08/25 16:42:11;;;;;;;22.48;18.85;;;27.80;99.90;;;;;;6082460;23;20016;-94
2022/08/25 16:44:38;;;;;;;23.95;20.45;;;27.70;99.90;;;;;;6080065;23;20436;-92
2022/08/25 16:47:05;;;;;;;22.50;20.20;;;27.60;99.90;;;;;;6079179;23;20037;-91
2022/08/25 16:49:31;;;;;;;24.23;18.17;;;27.40;99.90;;;;;;6079462;23;20010;-91
2022/08/25 16:51:58;;;;;;;22.42;17.58;;;27.30;99.90;;;;;;6104623;23;20013;-90
2022/08/25 16:57:11;;;;;;;22.40;18.60;;;27.40;99.90;;;;;;6102795;23;20396;-91
2022/08/25 16:59:37;;;;;;;31.75;19.13;;;27.30;99.90;;;;;;6078738;23;20006;-89
2022/08/25 17:02:05;;;;;;;21.88;18.15;;;27.40;99.90;;;;;;6102675;23;20011;-91
2022/08/25 17:04:31;;;;;;;32.28;18.60;;;27.30;99.90;;;;;;6079038;23;20002;-92
2022/08/25 17:06:57;;;;;;;20.98;18.90;;;27.30;99.90;;;;;;6078070;23;20069;-92
2022/08/25 17:09:24;;;;;;;24.80;19.17;;;27.30;99.90;;;;;;6078986;23;20009;-91
2022/08/25 17:11:55;;;;;;;22.48;18.65;;;27.20;99.90;;;;;;6079008;23;20033;-91
2022/08/25 17:14:21;;;;;;;21.35;18.00;;;27.20;99.90;;;;;;6078422;23;20018;-91
2022/08/25 17:16:49;;;;;;;23.67;18.92;;;27.20;99.90;;;;;;6078514;23;20006;-90
2022/08/25 17:19:18;;;;;;;19.98;17.98;;;27.20;99.90;;;;;;6079105;23;20025;-93
2022/08/25 17:21:47;;;;;;;24.75;19.20;;;27.20;99.90;;;;;;6097911;23;20432;-92
2022/08/25 17:24:15;;;;;;;21.77;18.50;;;27.10;99.90;;;;;;6081442;23;20014;-92
2022/08/25 17:26:48;;;;;;;25.27;18.77;;;27.10;99.90;;;;;;6079551;23;20002;-92
2022/08/25 17:29:17;;;;;;;21.20;18.38;;;27.10;99.90;;;;;;6078867;23;20021;-93
2022/08/25 17:31:44;;;;;;;22.00;17.83;;;27.00;99.90;;;;;;6078825;23;20016;-92
2022/08/25 17:34:13;;;;;;;26.10;18.58;;;27.00;99.90;;;;;;6078944;23;20018;-92
2022/08/25 17:36:41;;;;;;;23.75;18.40;;;26.90;99.90;;;;;;6084712;23;20010;-92
2022/08/25 17:39:10;;;;;;;21.90;18.35;;;26.90;99.90;;;;;;6117961;23;20024;-91
2022/08/25 17:41:37;;;;;;;22.77;18.55;;;26.90;99.90;;;;;;6146361;23;20032;-91
2022/08/25 17:44:06;;;;;;;23.83;18.85;;;26.80;99.90;;;;;;6150644;23;20008;-91
2022/08/25 17:46:33;;;;;;;23.27;19.05;;;26.80;99.90;;;;;;6147082;23;20009;-92
2022/08/25 17:49:00;;;;;;;22.33;19.95;;;26.80;99.90;;;;;;6139051;23;20096;-91
2022/08/25 17:51:26;;;;;;;26.67;20.00;;;26.80;99.90;;;;;;6137621;23;20005;-90
2022/08/25 17:53:53;;;;;;;25.98;20.50;;;26.70;99.90;;;;;;6136911;23;20012;-91
2022/08/25 17:56:22;;;;;;;26.98;20.10;;;26.60;99.90;;;;;;6136841;23;20005;-91
2022/08/25 17:58:53;;;;;;;26.17;20.25;;;26.60;99.90;;;;;;6136654;23;20013;-91
2022/08/25 18:01:26;;;;;;;25.83;21.00;;;26.50;99.90;;;;;;6137301;23;20009;-94
2022/08/25 18:03:53;;;;;;;30.38;21.73;;;26.50;99.90;;;;;;6137888;23;20016;-86
2022/08/25 18:06:21;;;;;;;25.35;21.10;;;26.40;99.90;;;;;;6136334;23;20005;-88
2022/08/25 18:08:49;;;;;;;27.38;21.20;;;26.30;99.90;;;;;;6136512;23;20096;-90
2022/08/25 18:11:17;;;;;;;27.92;20.63;;;26.20;99.90;;;;;;6136567;23;20005;-90
2022/08/25 18:13:45;;;;;;;26.45;19.38;;;26.00;99.90;;;;;;6136300;23;20067;-90
2022/08/25 18:16:13;;;;;;;25.75;18.05;;;26.00;99.90;;;;;;6136617;23;20000;-90
2022/08/25 18:18:40;;;;;;;28.70;19.33;;;25.90;99.90;;;;;;6136006;23;20086;-91
2022/08/25 18:21:12;;;;;;;27.45;17.83;;;25.80;99.90;;;;;;6134719;23;20035;-90
2022/08/25 18:23:48;;;;;;;21.58;18.70;;;25.80;99.90;;;;;;6135832;23;20012;-91
2022/08/25 18:26:33;;;;;;;21.33;18.60;;;25.70;99.90;;;;;;6140474;23;20013;-90
